createdAt,value
2019-02-16T00:00:34.424Z,84.13
2019-02-16T00:03:03.409Z,84.01
2019-02-16T00:05:32.137Z,83.52
2019-02-16T00:08:00.866Z,83.32
2019-02-16T00:10:29.647Z,83.66
2019-02-16T00:13:04.377Z,83.45
2019-02-16T00:15:33.096Z,83.47
2019-02-16T00:18:01.973Z,83.30
2019-02-16T00:20:30.698Z,82.87
2019-02-16T00:22:59.425Z,82.95
2019-02-16T00:25:28.321Z,83.33
2019-02-16T00:27:57.042Z,83.36
2019-02-16T00:30:25.777Z,83.59
2019-02-16T00:32:55.822Z,83.31
2019-02-16T00:35:24.685Z,82.76
2019-02-16T00:37:53.417Z,82.07
2019-02-16T00:40:22.271Z,81.94
2019-02-16T00:42:50.992Z,81.41
2019-02-16T00:45:19.732Z,81.94
2019-02-16T00:47:48.593Z,82.21
2019-02-16T00:50:17.317Z,81.74
2019-02-16T00:52:46.060Z,81.94
2019-02-16T00:55:14.851Z,82.60
2019-02-16T00:57:43.578Z,81.55
2019-02-16T01:00:13.022Z,81.72
2019-02-16T01:02:45.243Z,81.76
2019-02-16T01:05:13.963Z,81.85
2019-02-16T01:07:42.688Z,81.37
2019-02-16T01:10:11.490Z,81.17
2019-02-16T01:12:40.218Z,80.49
2019-02-16T01:15:09.615Z,80.07
2019-02-16T01:17:38.381Z,80.17
2019-02-16T01:20:09.304Z,80.09
2019-02-16T01:22:38.026Z,79.92
2019-02-16T01:25:07.295Z,79.71
2019-02-16T01:27:36.027Z,79.77
2019-02-16T01:30:07.363Z,78.98
2019-02-16T01:32:36.229Z,79.29
2019-02-16T01:35:06.460Z,79.31
2019-02-16T01:37:35.182Z,79.43
2019-02-16T01:40:04.658Z,79.95
2019-02-16T01:42:33.386Z,79.87
2019-02-16T01:45:02.134Z,79.72
2019-02-16T01:47:30.995Z,80.33
2019-02-16T01:49:59.724Z,80.04
2019-02-16T01:52:28.449Z,79.79
2019-02-16T01:54:57.223Z,79.97
2019-02-16T01:57:25.948Z,80.35
2019-02-16T01:59:54.677Z,79.43
2019-02-16T02:02:23.605Z,79.94
2019-02-16T02:04:52.329Z,79.82
2019-02-16T02:07:21.057Z,80.11
2019-02-16T02:09:49.911Z,80.01
2019-02-16T02:12:18.632Z,80.22
2019-02-16T02:14:47.358Z,79.44
2019-02-16T02:17:16.151Z,79.44
2019-02-16T02:19:44.871Z,78.56
2019-02-16T02:22:13.593Z,77.58
2019-02-16T02:24:42.478Z,77.25
2019-02-16T02:27:11.202Z,77.23
2019-02-16T02:29:39.931Z,77.64
2019-02-16T02:32:08.805Z,77.79
2019-02-16T02:34:37.533Z,78.24
2019-02-16T02:37:06.260Z,77.82
2019-02-16T02:39:35.054Z,78.52
2019-02-16T02:42:03.785Z,79.22
2019-02-16T02:44:32.512Z,79.57
2019-02-16T02:47:01.387Z,79.80
2019-02-16T02:49:30.120Z,79.76
2019-02-16T02:51:58.857Z,80.21
2019-02-16T02:54:27.650Z,80.11
2019-02-16T02:56:56.400Z,80.10
2019-02-16T02:59:25.132Z,80.30
2019-02-16T03:01:54.027Z,79.79
2019-02-16T03:04:22.757Z,79.58
2019-02-16T03:06:51.479Z,79.74
2019-02-16T03:09:20.388Z,79.26
2019-02-16T03:11:49.109Z,79.91
2019-02-16T03:14:17.840Z,81.07
2019-02-16T03:16:46.636Z,81.61
2019-02-16T03:19:15.364Z,81.62
2019-02-16T03:21:44.096Z,81.01
2019-02-16T03:24:12.977Z,81.80
2019-02-16T03:26:47.734Z,81.78
2019-02-16T03:29:27.931Z,80.68
2019-02-16T03:32:23.534Z,81.93
2019-02-16T03:34:58.212Z,82.83
2019-02-16T03:37:46.536Z,82.97
2019-02-16T03:40:15.300Z,82.96
2019-02-16T03:42:44.027Z,83.01
2019-02-16T03:45:12.843Z,82.40
2019-02-16T03:47:41.645Z,82.73
2019-02-16T03:50:10.462Z,84.15
2019-02-16T03:52:39.193Z,84.79
2019-02-16T03:55:08.075Z,85.59
2019-02-16T03:57:36.798Z,86.03
2019-02-16T04:00:08.530Z,86.13
2019-02-16T04:02:37.387Z,86.21
2019-02-16T04:05:07.216Z,86.08
2019-02-16T04:07:35.941Z,86.29
2019-02-16T04:10:06.234Z,87.30
2019-02-16T04:12:34.962Z,87.82
2019-02-16T04:15:03.697Z,88.02
2019-02-16T04:17:32.598Z,88.55
2019-02-16T04:20:01.353Z,88.77
2019-02-16T04:22:30.047Z,89.19
2019-02-16T04:24:58.827Z,89.74
2019-02-16T04:27:27.554Z,90.46
2019-02-16T04:29:56.282Z,90.52
2019-02-16T04:32:25.089Z,91.07
2019-02-16T04:34:53.807Z,91.62
2019-02-16T04:37:24.101Z,92.28
2019-02-16T04:39:53.014Z,92.53
2019-02-16T04:42:21.738Z,93.03
2019-02-16T04:44:50.458Z,93.58
2019-02-16T04:47:19.350Z,93.45
2019-02-16T04:49:48.078Z,92.82
2019-02-16T04:52:16.810Z,92.37
2019-02-16T04:54:45.611Z,92.51
2019-02-16T04:57:14.335Z,92.47
2019-02-16T04:59:43.059Z,92.71
2019-02-16T05:02:11.954Z,92.49
2019-02-16T05:04:40.685Z,92.84
2019-02-16T05:07:09.496Z,93.25
2019-02-16T05:09:38.305Z,93.88
2019-02-16T05:12:07.035Z,94.42
2019-02-16T05:14:35.765Z,93.47
2019-02-16T05:17:04.975Z,93.66
2019-02-16T05:19:33.703Z,94.63
2019-02-16T05:22:02.434Z,95.04
2019-02-16T05:24:31.334Z,95.37
2019-02-16T05:27:00.073Z,96.64
2019-02-16T05:29:28.800Z,97.85
2019-02-16T05:31:57.642Z,97.76
2019-02-16T05:34:26.353Z,97.92
2019-02-16T05:36:55.091Z,97.91
2019-02-16T05:39:23.973Z,97.68
2019-02-16T05:41:52.711Z,96.96
2019-02-16T05:44:21.448Z,96.30
2019-02-16T05:46:50.332Z,96.40
2019-02-16T05:49:19.065Z,96.66
2019-02-16T05:51:48.161Z,97.05
2019-02-16T05:54:17.183Z,96.97
2019-02-16T05:56:45.906Z,95.79
2019-02-16T05:59:14.637Z,94.43
2019-02-16T06:01:53.219Z,92.76
2019-02-16T06:04:13.966Z,91.61
2019-02-16T06:06:42.694Z,91.42
2019-02-16T06:09:11.517Z,91.87
2019-02-16T06:11:40.242Z,91.77
2019-02-16T06:14:08.974Z,91.15
2019-02-16T06:16:37.777Z,91.51
2019-02-16T06:19:06.507Z,90.17
2019-02-16T06:21:35.246Z,89.15
2019-02-16T06:24:04.144Z,89.39
2019-02-16T06:26:32.866Z,88.69
2019-02-16T06:29:01.593Z,88.80
2019-02-16T06:31:30.467Z,89.78
2019-02-16T06:33:59.195Z,90.22
2019-02-16T06:36:29.484Z,90.61
2019-02-16T06:38:58.310Z,90.80
2019-02-16T06:41:27.044Z,90.44
2019-02-16T06:43:55.770Z,90.73
2019-02-16T06:46:24.660Z,89.64
2019-02-16T06:48:53.390Z,87.86
2019-02-16T06:51:22.118Z,87.11
2019-02-16T06:53:50.990Z,86.66
2019-02-16T06:56:21.281Z,87.07
2019-02-16T06:58:50.007Z,87.31
2019-02-16T07:01:19.309Z,87.43
2019-02-16T07:03:48.031Z,85.47
2019-02-16T07:06:16.770Z,84.30
2019-02-16T07:08:45.540Z,82.58
2019-02-16T07:11:14.358Z,80.76
2019-02-16T07:13:43.089Z,80.08
2019-02-16T07:16:13.463Z,79.43
2019-02-16T07:18:49.735Z,79.51
2019-02-16T07:21:18.468Z,76.96
2019-02-16T07:23:47.281Z,76.76
2019-02-16T07:26:16.007Z,74.09
2019-02-16T07:28:44.728Z,73.46
2019-02-16T07:31:15.728Z,71.90
2019-02-16T07:33:43.960Z,71.37
2019-02-16T07:36:14.204Z,70.61
2019-02-16T07:38:42.949Z,68.67
2019-02-16T07:41:11.677Z,68.65
2019-02-16T07:43:51.091Z,67.62
2019-02-16T07:46:36.294Z,68.29
2019-02-16T07:49:18.888Z,66.57
2019-02-16T07:52:04.424Z,67.25
2019-02-16T07:54:47.320Z,67.15
2019-02-16T07:57:20.762Z,67.01
2019-02-16T07:59:51.339Z,66.74
2019-02-16T08:02:21.643Z,67.33
2019-02-16T08:04:51.950Z,63.08
2019-02-16T08:07:28.183Z,64.46
2019-02-16T08:09:58.480Z,64.53
2019-02-16T08:12:44.247Z,62.20
2019-02-16T08:15:31.188Z,63.52
2019-02-16T08:18:10.867Z,61.40
2019-02-16T08:20:41.170Z,61.48
2019-02-16T08:23:11.490Z,64.19
2019-02-16T08:25:53.954Z,63.34
2019-02-16T08:28:27.211Z,61.15
2019-02-16T08:31:00.236Z,61.14
2019-02-16T08:33:30.539Z,60.35
2019-02-16T08:36:00.836Z,61.99
2019-02-16T08:38:34.260Z,62.75
2019-02-16T08:41:07.380Z,60.74
2019-02-16T08:43:40.743Z,62.49
2019-02-16T08:46:20.253Z,60.63
2019-02-16T08:48:53.738Z,61.22
2019-02-16T08:51:36.096Z,61.38
2019-02-16T08:54:22.944Z,62.13
2019-02-16T08:56:53.242Z,62.31
2019-02-16T08:59:23.545Z,62.21
2019-02-16T09:02:02.774Z,63.07
2019-02-16T09:04:48.118Z,62.82
2019-02-16T09:07:21.463Z,63.27
2019-02-16T09:09:54.494Z,60.65
2019-02-16T09:12:24.800Z,58.00
2019-02-16T09:15:04.105Z,60.16
2019-02-16T09:17:34.401Z,60.80
2019-02-16T09:20:21.690Z,58.57
2019-02-16T09:22:58.034Z,57.75
2019-02-16T09:25:37.649Z,58.73
2019-02-16T09:28:10.846Z,56.88
2019-02-16T09:30:41.265Z,56.18
2019-02-16T09:33:17.436Z,55.26
2019-02-16T09:35:56.566Z,56.09
2019-02-16T09:38:42.095Z,55.73
2019-02-16T09:41:21.662Z,53.31
2019-02-16T09:44:03.909Z,52.95
2019-02-16T09:46:40.594Z,50.23
2019-02-16T09:49:10.894Z,50.06
2019-02-16T09:51:44.145Z,49.11
2019-02-16T09:54:20.616Z,49.63
2019-02-16T09:57:07.084Z,48.40
2019-02-16T09:59:37.418Z,50.49
2019-02-16T10:02:10.435Z,49.26
2019-02-16T10:04:44.648Z,45.63
2019-02-16T10:07:30.568Z,46.36
2019-02-16T10:10:07.317Z,42.62
2019-02-16T10:12:37.621Z,44.52
2019-02-16T10:15:19.339Z,45.45
2019-02-16T10:17:52.647Z,45.64
2019-02-16T10:20:28.989Z,45.53
2019-02-16T10:23:01.991Z,45.24
2019-02-16T10:25:32.294Z,43.79
2019-02-16T10:28:05.617Z,44.52
2019-02-16T10:30:44.927Z,44.88
2019-02-16T10:33:18.636Z,44.50
2019-02-16T10:35:51.685Z,45.38
2019-02-16T10:38:31.259Z,46.14
2019-02-16T10:41:01.678Z,44.44
2019-02-16T10:43:44.188Z,45.33
2019-02-16T10:46:23.454Z,45.50
2019-02-16T10:48:53.825Z,41.91
2019-02-16T10:51:40.426Z,44.44
2019-02-16T10:54:10.896Z,45.73
2019-02-16T10:56:44.122Z,43.74
2019-02-16T10:59:14.418Z,42.85
2019-02-16T11:01:44.873Z,43.03
2019-02-16T11:04:15.205Z,43.45
2019-02-16T11:06:48.470Z,43.06
2019-02-16T11:09:19.253Z,43.90
2019-02-16T11:11:54.994Z,41.92
2019-02-16T11:14:24.973Z,43.14
2019-02-16T11:16:55.258Z,45.49
2019-02-16T11:19:41.992Z,45.15
2019-02-16T11:22:21.476Z,42.00
2019-02-16T11:24:51.948Z,48.63
2019-02-16T11:27:25.216Z,47.37
2019-02-16T11:29:55.524Z,42.86
2019-02-16T11:32:31.714Z,43.06
2019-02-16T11:35:05.035Z,44.51
2019-02-16T11:37:35.324Z,42.01
2019-02-16T11:40:06.470Z,41.57
2019-02-16T11:42:36.799Z,42.27
2019-02-16T11:45:09.401Z,39.96
2019-02-16T11:47:45.928Z,42.62
2019-02-16T11:50:16.220Z,41.00
2019-02-16T11:52:49.289Z,39.91
2019-02-16T11:55:36.182Z,40.36
2019-02-16T11:58:09.554Z,38.80
2019-02-16T12:00:55.003Z,41.86
2019-02-16T12:03:25.297Z,39.47
2019-02-16T12:06:01.936Z,40.23
2019-02-16T12:08:35.226Z,42.55
2019-02-16T12:11:11.766Z,40.67
2019-02-16T12:13:42.055Z,38.42
2019-02-16T12:16:15.313Z,38.99
2019-02-16T12:18:49.925Z,41.39
2019-02-16T12:21:36.792Z,40.31
2019-02-16T12:24:16.153Z,40.39
2019-02-16T12:26:46.458Z,41.12
2019-02-16T12:29:16.751Z,41.66
2019-02-16T12:32:04.070Z,39.88
2019-02-16T12:34:34.352Z,40.77
2019-02-16T12:37:13.914Z,40.48
2019-02-16T12:39:44.221Z,40.97
2019-02-16T12:42:30.511Z,42.16
2019-02-16T12:45:03.755Z,44.22
2019-02-16T12:47:36.963Z,42.63
2019-02-16T12:50:08.075Z,41.16
2019-02-16T12:52:38.371Z,41.84
2019-02-16T12:55:14.610Z,41.82
2019-02-16T12:57:47.595Z,41.45
2019-02-16T13:00:17.933Z,41.26
2019-02-16T13:03:00.194Z,41.69
2019-02-16T13:05:45.939Z,41.56
2019-02-16T13:08:18.976Z,42.07
2019-02-16T13:11:05.956Z,40.22
2019-02-16T13:13:48.287Z,40.87
2019-02-16T13:16:21.643Z,40.36
2019-02-16T13:18:51.969Z,40.96
2019-02-16T13:21:22.283Z,40.70
2019-02-16T13:24:01.610Z,39.48
2019-02-16T13:26:34.617Z,39.57
2019-02-16T13:29:07.986Z,39.17
2019-02-16T13:31:44.424Z,39.93
2019-02-16T13:34:17.901Z,40.10
2019-02-16T13:37:04.926Z,41.03
2019-02-16T13:39:44.461Z,40.04
2019-02-16T13:42:27.063Z,40.49
2019-02-16T13:44:57.712Z,40.23
2019-02-16T13:47:28.022Z,39.40
2019-02-16T13:49:58.323Z,39.26
2019-02-16T13:52:29.230Z,40.75
2019-02-16T13:54:59.557Z,41.28
2019-02-16T13:57:32.814Z,41.52
2019-02-16T14:00:04.356Z,42.16
2019-02-16T14:02:37.401Z,41.94
2019-02-16T14:05:11.119Z,42.20
2019-02-16T14:07:56.677Z,39.89
2019-02-16T14:10:37.195Z,41.02
2019-02-16T14:13:13.483Z,41.79
2019-02-16T14:15:49.913Z,40.94
2019-02-16T14:18:18.645Z,41.85
2019-02-16T14:20:47.423Z,41.09
2019-02-16T14:23:16.300Z,41.58
2019-02-16T14:25:45.896Z,41.63
2019-02-16T14:28:14.787Z,41.68
2019-02-16T14:30:43.664Z,41.80
2019-02-16T14:33:12.395Z,41.52
2019-02-16T14:35:41.129Z,42.47
2019-02-16T14:38:21.102Z,42.36
2019-02-16T14:40:49.830Z,42.47
2019-02-16T14:43:18.603Z,42.78
2019-02-16T14:45:47.335Z,44.41
2019-02-16T14:48:16.067Z,42.52
2019-02-16T14:50:44.792Z,43.77
2019-02-16T14:53:13.944Z,43.20
2019-02-16T14:55:51.615Z,42.34
2019-02-16T14:58:13.132Z,42.73
2019-02-16T15:00:42.031Z,43.44
2019-02-16T15:03:10.771Z,42.90
2019-02-16T15:05:39.496Z,43.50
2019-02-16T15:08:08.395Z,43.95
2019-02-16T15:10:37.124Z,43.73
2019-02-16T15:13:05.852Z,45.60
2019-02-16T15:15:34.640Z,45.50
2019-02-16T15:18:03.882Z,45.68
2019-02-16T15:20:32.671Z,47.35
2019-02-16T15:23:01.626Z,47.91
2019-02-16T15:25:30.361Z,48.20
2019-02-16T15:27:59.099Z,48.43
2019-02-16T15:30:28.212Z,48.74
2019-02-16T15:32:56.955Z,50.33
2019-02-16T15:35:27.530Z,50.41
2019-02-16T15:37:56.494Z,50.87
2019-02-16T15:40:25.218Z,51.99
2019-02-16T15:42:53.940Z,53.68
2019-02-16T15:45:22.695Z,53.71
2019-02-16T15:47:51.423Z,54.85
2019-02-16T15:50:20.149Z,55.46
2019-02-16T15:52:49.108Z,55.33
2019-02-16T15:55:17.870Z,55.51
2019-02-16T15:57:46.601Z,56.45
2019-02-16T16:00:20.000Z,56.82
2019-02-16T16:02:48.744Z,57.49
2019-02-16T16:05:17.463Z,58.08
2019-02-16T16:07:48.186Z,58.30
2019-02-16T16:10:18.474Z,58.15
2019-02-16T16:12:50.130Z,58.68
2019-02-16T16:15:23.229Z,59.58
2019-02-16T16:17:59.559Z,59.56
2019-02-16T16:20:47.196Z,59.64
2019-02-16T16:23:33.691Z,60.25
2019-02-16T16:26:04.019Z,60.66
2019-02-16T16:28:34.924Z,61.20
2019-02-16T16:31:21.209Z,63.99
2019-02-16T16:34:00.481Z,64.45
2019-02-16T16:36:40.489Z,64.08
2019-02-16T16:39:10.758Z,65.37
2019-02-16T16:41:44.009Z,66.18
2019-02-16T16:44:14.697Z,67.66
2019-02-16T16:46:45.027Z,68.29
2019-02-16T16:49:46.187Z,69.82
2019-02-16T16:52:41.936Z,70.00
2019-02-16T16:55:12.315Z,70.93
2019-02-16T16:57:42.622Z,70.68
2019-02-16T17:00:25.418Z,69.81
2019-02-16T17:03:11.840Z,69.28
2019-02-16T17:05:45.359Z,68.73
2019-02-16T17:08:32.069Z,68.67
2019-02-16T17:11:02.433Z,69.09
2019-02-16T17:13:35.469Z,69.66
2019-02-16T17:16:05.780Z,70.12
2019-02-16T17:18:52.700Z,70.84
2019-02-16T17:21:35.008Z,71.32
2019-02-16T17:24:05.415Z,71.43
2019-02-16T17:26:38.036Z,71.11
2019-02-16T17:29:17.753Z,71.90
2019-02-16T17:32:04.259Z,71.83
2019-02-16T17:34:46.768Z,71.48
2019-02-16T17:37:20.069Z,69.96
2019-02-16T17:39:50.372Z,68.91
2019-02-16T17:42:25.286Z,69.36
2019-02-16T17:45:01.747Z,70.15
2019-02-16T17:47:47.777Z,71.28
2019-02-16T17:50:26.666Z,71.60
2019-02-16T17:53:02.978Z,72.02
2019-02-16T17:55:42.421Z,72.11
2019-02-16T17:58:12.830Z,71.10
2019-02-16T18:00:43.139Z,70.55
2019-02-16T18:03:13.447Z,70.74
2019-02-16T18:05:55.742Z,71.37
2019-02-16T18:08:26.037Z,71.37
2019-02-16T18:11:08.781Z,71.66
2019-02-16T18:13:39.084Z,71.05
2019-02-16T18:16:15.267Z,71.29
2019-02-16T18:18:45.718Z,71.19
2019-02-16T18:21:19.241Z,71.06
2019-02-16T18:23:49.534Z,70.74
2019-02-16T18:26:19.884Z,70.56
2019-02-16T18:28:57.557Z,70.74
2019-02-16T18:31:28.058Z,70.94
2019-02-16T18:34:15.614Z,70.63
2019-02-16T18:36:52.250Z,71.04
2019-02-16T18:39:39.227Z,70.79
2019-02-16T18:42:25.749Z,71.02
2019-02-16T18:45:02.797Z,71.16
2019-02-16T18:47:42.441Z,71.53
2019-02-16T18:50:16.218Z,71.65
2019-02-16T18:52:46.573Z,71.85
2019-02-16T18:55:16.878Z,72.29
2019-02-16T18:57:50.574Z,72.76
2019-02-16T19:00:20.887Z,72.91
2019-02-16T19:02:54.449Z,72.53
2019-02-16T19:05:41.309Z,72.38
2019-02-16T19:08:21.382Z,72.59
2019-02-16T19:11:14.220Z,72.83
2019-02-16T19:13:47.068Z,73.44
2019-02-16T19:16:37.761Z,73.77
2019-02-16T19:19:11.066Z,74.02
2019-02-16T19:21:48.883Z,73.79
2019-02-16T19:24:31.244Z,74.22
2019-02-16T19:27:01.664Z,74.29
2019-02-16T19:29:48.073Z,74.49
2019-02-16T19:32:29.299Z,75.06
2019-02-16T19:35:02.494Z,75.16
2019-02-16T19:37:35.937Z,75.27
2019-02-16T19:40:12.856Z,75.28
2019-02-16T19:42:49.842Z,75.51
2019-02-16T19:45:23.264Z,74.87
2019-02-16T19:47:53.983Z,74.32
2019-02-16T19:50:26.099Z,74.05
2019-02-16T19:52:56.501Z,74.44
2019-02-16T19:55:30.333Z,74.38
2019-02-16T19:58:06.643Z,74.41
2019-02-16T20:00:53.946Z,74.78
2019-02-16T20:03:29.853Z,75.21
2019-02-16T20:06:04.518Z,75.66
2019-02-16T20:08:43.348Z,75.87
2019-02-16T20:11:20.000Z,76.11
2019-02-16T20:13:53.282Z,76.39
2019-02-16T20:16:41.969Z,77.06
2019-02-16T20:19:12.269Z,77.53
2019-02-16T20:21:42.604Z,77.75
2019-02-16T20:24:28.156Z,77.51
2019-02-16T20:27:14.809Z,77.63
2019-02-16T20:29:45.150Z,77.96
2019-02-16T20:32:31.568Z,78.54
2019-02-16T20:35:04.946Z,78.79
2019-02-16T20:37:39.497Z,78.58
2019-02-16T20:40:15.723Z,78.61
2019-02-16T20:42:49.722Z,78.71
2019-02-16T20:45:20.029Z,78.68
2019-02-16T20:47:50.494Z,78.78
2019-02-16T20:50:20.803Z,79.04
2019-02-16T20:53:03.499Z,79.33
2019-02-16T20:55:39.961Z,79.68
2019-02-16T20:58:13.242Z,79.77
2019-02-16T21:00:43.539Z,79.95
2019-02-16T21:03:19.907Z,79.61
2019-02-16T21:06:06.395Z,79.91
2019-02-16T21:08:40.047Z,79.95
2019-02-16T21:11:16.528Z,80.12
2019-02-16T21:13:47.068Z,80.09
2019-02-16T21:16:33.718Z,79.69
2019-02-16T21:19:04.500Z,79.54
2019-02-16T21:21:53.211Z,79.76
2019-02-16T21:24:23.671Z,80.15
2019-02-16T21:26:57.038Z,79.99
2019-02-16T21:29:42.524Z,80.52
2019-02-16T21:32:12.834Z,81.17
2019-02-16T21:34:59.598Z,81.55
2019-02-16T21:37:36.310Z,82.12
2019-02-16T21:40:07.452Z,81.67
2019-02-16T21:42:37.747Z,82.70
2019-02-16T21:45:10.967Z,83.48
2019-02-16T21:47:50.624Z,84.12
2019-02-16T21:50:23.938Z,84.68
2019-02-16T21:53:09.757Z,86.14
2019-02-16T21:55:56.268Z,86.94
2019-02-16T21:58:29.558Z,87.09
2019-02-16T22:01:02.707Z,87.05
2019-02-16T22:03:33.006Z,87.23
2019-02-16T22:06:19.551Z,87.28
2019-02-16T22:08:52.634Z,87.59
2019-02-16T22:11:22.939Z,88.09
2019-02-16T22:13:51.835Z,88.41
2019-02-16T22:16:20.562Z,89.11
2019-02-16T22:18:49.291Z,89.71
2019-02-16T22:21:24.426Z,91.00
2019-02-16T22:23:53.162Z,91.29
2019-02-16T22:26:21.900Z,91.98
2019-02-16T22:28:50.799Z,91.83
2019-02-16T22:31:19.528Z,91.46
2019-02-16T22:33:48.260Z,91.51
2019-02-16T22:36:17.060Z,91.45
2019-02-16T22:38:45.853Z,91.15
2019-02-16T22:41:14.785Z,91.14
2019-02-16T22:43:43.643Z,90.94
2019-02-16T22:46:13.389Z,91.03
2019-02-16T22:48:42.150Z,91.04
2019-02-16T22:51:10.940Z,91.20
2019-02-16T22:53:39.667Z,91.23
2019-02-16T22:56:08.406Z,91.26
2019-02-16T22:58:37.201Z,91.20
2019-02-16T23:01:06.228Z,90.92
2019-02-16T23:03:34.958Z,91.37
2019-02-16T23:06:03.754Z,91.24
2019-02-16T23:08:32.486Z,91.34
2019-02-16T23:11:01.217Z,90.74
2019-02-16T23:13:30.520Z,90.25
2019-02-16T23:15:59.253Z,89.29
2019-02-16T23:18:27.978Z,90.11
2019-02-16T23:20:56.754Z,90.21
2019-02-16T23:23:25.483Z,90.32
2019-02-16T23:25:54.214Z,90.83
2019-02-16T23:28:23.211Z,91.79
2019-02-16T23:30:51.946Z,92.12
2019-02-16T23:33:20.691Z,92.43
2019-02-16T23:35:49.546Z,92.67
2019-02-16T23:38:18.280Z,92.80
2019-02-16T23:40:47.159Z,93.18
2019-02-16T23:43:16.286Z,93.23
2019-02-16T23:45:45.017Z,92.81
2019-02-16T23:48:13.744Z,93.59
2019-02-16T23:50:42.623Z,93.83
2019-02-16T23:53:11.353Z,93.94
2019-02-16T23:55:40.078Z,94.29
2019-02-16T23:58:08.964Z,94.35
